This is the latest recevied weather packets stored in our database for station/object SV9TNF-57. If no packets are shown the sender has not sent any weather packets the latest 10 day(s).
| Time | Temp. | Humidity | Pressure | Rain* | Wind** | Luminosity | Snow |
|---|---|---|---|---|---|---|---|
| 1788280701 | 28.33° C | 62% | 994.7 hPa | 0 mm | 0.45 m/s, 252° | - | - |
| 1788280401 | 28.33° C | 63% | 994.7 hPa | 0 mm | 0.89 m/s, 175° | - | - |
| 1788280101 | 28.33° C | 62% | 994.7 hPa | 0 mm | 6.26 m/s, 187° | - | - |
| 1788279801 | 28.33° C | 63% | 994.7 hPa | 0 mm | 4.02 m/s, 174° | - | - |
| 1788279500 | 29.44° C | 59% | 994.7 hPa | 0 mm | 9.39 m/s, 181° | - | - |
| 1788279200 | 30° C | 56% | 994.7 hPa | 0 mm | 0 m/s | - | - |
| 1788278901 | 31.67° C | 44% | 994.7 hPa | 0 mm | 4.92 m/s, 177° | - | - |
| 1788278601 | 32.22° C | 31% | 994.7 hPa | 0 mm | 2.68 m/s, 321° | - | - |
| 1788278300 | 32.22° C | 31% | 994.7 hPa | 0 mm | 0 m/s | - | - |
| 1788278000 | 31.67° C | 31% | 994.8 hPa | 0 mm | 0 m/s | - | - |
| 1788277700 | 31.11° C | 32% | 994.7 hPa | 0 mm | 5.81 m/s, 3° | - | - |
| 1788277400 | 31.67° C | 31% | 994.7 hPa | 0 mm | 6.26 m/s, 357° | - | - |
| 1788277100 | 31.67° C | 32% | 994.7 hPa | 0 mm | 4.02 m/s, 258° | - | - |
| 1788276800 | 31.67° C | 32% | 994.6 hPa | 0 mm | 3.58 m/s, 314° | - | - |
| 1788276499 | 31.67° C | 34% | 994.6 hPa | 0 mm | 0.89 m/s, 310° | - | - |
| 1788276199 | 31.67° C | 33% | 994.7 hPa | 0 mm | 3.13 m/s, 307° | - | - |
| 1788275900 | 31.67° C | 33% | 994.6 hPa | 0 mm | 2.24 m/s, 268° | - | - |
| 1788275599 | 31.67° C | 33% | 994.6 hPa | 0 mm | 0 m/s | - | - |
| 1788275299 | 31.67° C | 33% | 994.6 hPa | 0 mm | 0.89 m/s, 271° | - | - |
| 1788274999 | 31.67° C | 32% | 994.6 hPa | 0 mm | 8.49 m/s, 0° | - | - |
| 1788274699 | 31.67° C | 33% | 994.5 hPa | 0 mm | 4.02 m/s, 327° | - | - |
| 1788274399 | 31.67° C | 33% | 994.5 hPa | 0 mm | 7.15 m/s, 236° | - | - |
| 1788274099 | 31.67° C | 33% | 994.4 hPa | 0 mm | 6.71 m/s, 352° | - | - |
| 1788273798 | 32.22° C | 32% | 994.4 hPa | 0 mm | 5.36 m/s, 327° | - | - |
| 1788273499 | 32.22° C | 31% | 994.4 hPa | 0 mm | 9.83 m/s, 24° | - | - |
* Rain latest hour (hover to see other rain measurements)
** Current wind speed in m/s (hover to see current wind gust speed)